createdAt,value
2018-09-03T00:00:44.515Z,17.24
2018-09-03T00:01:44.481Z,17.26
2018-09-03T00:02:44.439Z,17.30
2018-09-03T00:03:44.410Z,17.27
2018-09-03T00:04:44.379Z,17.24
2018-09-03T00:05:44.340Z,17.23
2018-09-03T00:06:44.311Z,17.36
2018-09-03T00:07:44.276Z,17.33
2018-09-03T00:08:44.240Z,17.29
2018-09-03T00:09:44.210Z,17.24
2018-09-03T00:10:44.169Z,17.26
2018-09-03T00:11:44.136Z,17.22
2018-09-03T00:12:44.104Z,17.23
2018-09-03T00:13:44.070Z,17.29
2018-09-03T00:14:44.041Z,17.23
2018-09-03T00:15:44.008Z,17.33
2018-09-03T00:16:43.968Z,17.34
2018-09-03T00:17:43.937Z,17.38
2018-09-03T00:18:43.902Z,17.31
2018-09-03T00:19:43.873Z,17.36
2018-09-03T00:20:43.832Z,17.33
2018-09-03T00:21:43.805Z,17.33
2018-09-03T00:22:43.772Z,17.42
2018-09-03T00:23:43.729Z,17.49
2018-09-03T00:24:43.699Z,17.59
2018-09-03T00:25:43.660Z,17.49
2018-09-03T00:26:43.638Z,17.41
2018-09-03T00:27:43.594Z,17.34
2018-09-03T00:28:43.560Z,17.34
2018-09-03T00:29:43.532Z,17.27
2018-09-03T00:30:43.488Z,17.30
2018-09-03T00:31:43.458Z,17.29
2018-09-03T00:32:43.426Z,17.29
2018-09-03T00:33:43.392Z,17.29
2018-09-03T00:34:43.351Z,17.29
2018-09-03T00:35:43.324Z,17.24
2018-09-03T00:36:43.294Z,17.27
2018-09-03T00:37:43.252Z,17.30
2018-09-03T00:38:43.224Z,17.34
2018-09-03T00:39:43.209Z,17.39
2018-09-03T00:40:43.153Z,17.34
2018-09-03T00:41:43.121Z,17.34
2018-09-03T00:42:43.081Z,17.39
2018-09-03T00:43:43.049Z,17.48
2018-09-03T00:44:43.016Z,17.48
2018-09-03T00:45:42.986Z,17.54
2018-09-03T00:46:42.951Z,17.59
2018-09-03T00:47:42.915Z,17.52
2018-09-03T00:48:42.880Z,17.57
2018-09-03T00:49:42.842Z,17.57
2018-09-03T00:50:42.818Z,17.57
2018-09-03T00:51:42.781Z,17.56
2018-09-03T00:52:42.745Z,17.52
2018-09-03T00:53:42.713Z,17.52
2018-09-03T00:54:42.677Z,17.52
2018-09-03T00:55:42.644Z,17.59
2018-09-03T00:56:42.611Z,17.59
2018-09-03T00:57:42.580Z,17.59
2018-09-03T00:58:42.546Z,17.60
2018-09-03T00:59:42.509Z,17.54
2018-09-03T01:00:42.475Z,17.56
2018-09-03T01:01:42.443Z,17.56
2018-09-03T01:02:42.404Z,17.51
2018-09-03T01:03:42.370Z,17.64
2018-09-03T01:04:42.339Z,17.64
2018-09-03T01:05:42.305Z,17.59
2018-09-03T01:06:42.270Z,17.59
2018-09-03T01:07:42.236Z,17.56
2018-09-03T01:08:42.201Z,17.57
2018-09-03T01:09:42.163Z,17.59
2018-09-03T01:10:42.135Z,17.52
2018-09-03T01:11:42.102Z,17.51
2018-09-03T01:12:42.066Z,17.56
2018-09-03T01:13:42.033Z,17.56
2018-09-03T01:14:41.995Z,17.51
2018-09-03T01:15:41.964Z,17.65
2018-09-03T01:16:41.934Z,17.59
2018-09-03T01:17:41.892Z,17.60
2018-09-03T01:18:41.868Z,17.57
2018-09-03T01:19:41.828Z,17.59
2018-09-03T01:20:41.792Z,17.60
2018-09-03T01:21:41.758Z,17.64
2018-09-03T01:22:41.728Z,17.57
2018-09-03T01:23:41.693Z,17.54
2018-09-03T01:24:41.659Z,17.60
2018-09-03T01:25:41.625Z,17.57
2018-09-03T01:26:41.586Z,17.54
2018-09-03T01:27:41.554Z,17.60
2018-09-03T01:28:41.520Z,17.57
2018-09-03T01:29:41.490Z,17.57
2018-09-03T01:30:41.459Z,17.59
2018-09-03T01:31:41.423Z,17.59
2018-09-03T01:32:41.387Z,17.51
2018-09-03T01:33:41.354Z,17.56
2018-09-03T01:34:41.349Z,17.60
2018-09-03T01:35:41.284Z,17.64
2018-09-03T01:36:41.254Z,17.60
2018-09-03T01:37:41.223Z,17.57
2018-09-03T01:38:41.178Z,17.56
2018-09-03T01:39:41.145Z,17.57
2018-09-03T01:40:41.113Z,17.56
2018-09-03T01:41:41.081Z,17.49
2018-09-03T01:42:41.049Z,17.54
2018-09-03T01:43:41.012Z,17.51
2018-09-03T01:44:40.978Z,17.52
2018-09-03T01:45:40.946Z,17.48
2018-09-03T01:46:40.912Z,17.56
2018-09-03T01:47:40.876Z,17.52
2018-09-03T01:48:40.842Z,17.63
2018-09-03T01:49:40.807Z,17.59
2018-09-03T01:50:40.776Z,17.60
2018-09-03T01:51:40.744Z,17.67
2018-09-03T01:52:40.704Z,17.64
2018-09-03T01:53:40.671Z,17.59
2018-09-03T01:54:40.640Z,17.59
2018-09-03T01:55:40.604Z,17.63
2018-09-03T01:56:40.577Z,17.56
2018-09-03T01:57:40.541Z,17.56
2018-09-03T01:58:40.498Z,17.59
2018-09-03T01:59:40.467Z,17.56
2018-09-03T02:00:40.440Z,17.56
2018-09-03T02:01:40.398Z,17.44
2018-09-03T02:02:40.380Z,17.46
2018-09-03T02:03:40.333Z,17.36
2018-09-03T02:04:40.299Z,17.38
2018-09-03T02:05:40.272Z,17.33
2018-09-03T02:06:40.233Z,17.38
2018-09-03T02:07:40.196Z,17.39
2018-09-03T02:08:40.165Z,17.41
2018-09-03T02:09:40.133Z,17.24
2018-09-03T02:10:40.093Z,17.24
2018-09-03T02:11:40.060Z,17.27
2018-09-03T02:12:40.026Z,17.26
2018-09-03T02:13:39.991Z,17.26
2018-09-03T02:14:39.960Z,17.22
2018-09-03T02:15:39.932Z,17.24
2018-09-03T02:16:39.901Z,17.24
2018-09-03T02:17:39.864Z,17.24
2018-09-03T02:18:39.821Z,17.27
2018-09-03T02:19:39.787Z,17.24
2018-09-03T02:20:39.755Z,17.23
2018-09-03T02:21:39.720Z,17.33
2018-09-03T02:22:39.698Z,17.23
2018-09-03T02:23:39.656Z,17.26
2018-09-03T02:24:39.626Z,17.26
2018-09-03T02:25:39.587Z,17.26
2018-09-03T02:26:39.553Z,17.24
2018-09-03T02:27:39.522Z,17.31
2018-09-03T02:28:39.483Z,17.22
2018-09-03T02:29:39.452Z,17.24
2018-09-03T02:30:39.411Z,17.22
2018-09-03T02:31:39.379Z,17.29
2018-09-03T02:32:39.346Z,17.27
2018-09-03T02:33:39.311Z,17.19
2018-09-03T02:34:39.286Z,17.30
2018-09-03T02:35:39.248Z,17.27
2018-09-03T02:36:39.223Z,17.31
2018-09-03T02:37:39.180Z,17.15
2018-09-03T02:38:39.143Z,17.20
2018-09-03T02:39:39.104Z,17.12
2018-09-03T02:40:39.076Z,17.16
2018-09-03T02:41:39.041Z,17.09
2018-09-03T02:42:39.006Z,17.14
2018-09-03T02:43:38.975Z,17.12
2018-09-03T02:44:38.934Z,17.14
2018-09-03T02:45:38.900Z,17.11
2018-09-03T02:46:38.870Z,17.12
2018-09-03T02:47:38.840Z,17.09
2018-09-03T02:48:38.803Z,17.09
2018-09-03T02:49:38.766Z,17.20
2018-09-03T02:50:38.735Z,17.16
2018-09-03T02:51:38.696Z,17.22
2018-09-03T02:52:38.662Z,17.24
2018-09-03T02:53:38.629Z,17.20
2018-09-03T02:54:38.604Z,17.19
2018-09-03T02:55:38.566Z,17.23
2018-09-03T02:56:38.527Z,17.24
2018-09-03T02:57:38.493Z,17.20
2018-09-03T02:58:38.460Z,17.27
2018-09-03T02:59:38.440Z,17.20
2018-09-03T03:00:38.403Z,17.27
2018-09-03T03:01:38.364Z,17.30
2018-09-03T03:02:38.321Z,17.36
2018-09-03T03:03:38.284Z,17.26
2018-09-03T03:04:38.254Z,17.34
2018-09-03T03:05:38.218Z,17.38
2018-09-03T03:06:38.188Z,17.36
2018-09-03T03:07:38.154Z,17.38
2018-09-03T03:08:38.120Z,17.39
2018-09-03T03:09:38.085Z,17.41
2018-09-03T03:10:38.048Z,17.44
2018-09-03T03:11:38.055Z,17.38
2018-09-03T03:12:37.986Z,17.44
2018-09-03T03:13:37.955Z,17.39
2018-09-03T03:14:37.917Z,17.36
2018-09-03T03:15:37.876Z,17.36
2018-09-03T03:16:37.857Z,17.33
2018-09-03T03:17:37.808Z,17.42
2018-09-03T03:18:37.777Z,17.38
2018-09-03T03:19:37.771Z,17.34
2018-09-03T03:20:37.711Z,17.41
2018-09-03T03:21:37.676Z,17.39
2018-09-03T03:22:37.638Z,17.33
2018-09-03T03:23:37.603Z,17.31
2018-09-03T03:24:37.574Z,17.34
2018-09-03T03:25:37.536Z,17.33
2018-09-03T03:26:37.504Z,17.29
2018-09-03T03:27:37.472Z,17.26
2018-09-03T03:28:37.436Z,17.30
2018-09-03T03:29:37.402Z,17.27
2018-09-03T03:30:37.370Z,17.29
2018-09-03T03:31:37.340Z,17.29
2018-09-03T03:32:37.305Z,17.24
2018-09-03T03:33:37.279Z,17.24
2018-09-03T03:34:37.229Z,17.27
2018-09-03T03:35:37.193Z,17.23
2018-09-03T03:36:37.158Z,17.26
2018-09-03T03:37:37.129Z,17.29
2018-09-03T03:38:37.097Z,17.27
2018-09-03T03:39:37.065Z,17.29
2018-09-03T03:40:37.029Z,17.33
2018-09-03T03:41:36.992Z,17.26
2018-09-03T03:42:36.961Z,17.33
2018-09-03T03:43:36.921Z,17.33
2018-09-03T03:44:36.903Z,17.29
2018-09-03T03:45:36.857Z,17.23
2018-09-03T03:46:36.822Z,17.26
2018-09-03T03:47:36.786Z,17.29
2018-09-03T03:48:36.769Z,17.23
2018-09-03T03:49:36.720Z,17.30
2018-09-03T03:50:36.694Z,17.20
2018-09-03T03:51:36.656Z,17.24
2018-09-03T03:52:36.626Z,17.29
2018-09-03T04:06:35.402Z,17.14
2018-09-03T04:07:35.322Z,17.15
2018-09-03T04:08:35.284Z,17.11
2018-09-03T04:09:35.248Z,17.20
2018-09-03T04:10:35.206Z,17.09
2018-09-03T04:11:35.165Z,17.22
2018-09-03T04:12:35.128Z,17.23
2018-09-03T04:13:35.095Z,17.27
2018-09-03T04:14:35.072Z,17.27
2018-09-03T04:15:35.018Z,17.24
2018-09-03T04:16:34.984Z,17.22
2018-09-03T04:17:34.945Z,17.16
2018-09-03T04:18:34.912Z,17.27
2018-09-03T04:19:34.877Z,17.30
2018-09-03T04:20:34.842Z,17.26
2018-09-03T04:21:34.812Z,17.20
2018-09-03T04:22:34.772Z,17.24
2018-09-03T04:23:34.734Z,17.14
2018-09-03T04:24:34.702Z,17.15
2018-09-03T04:25:34.661Z,17.15
2018-09-03T04:26:34.633Z,17.15
2018-09-03T04:27:34.596Z,17.20
2018-09-03T04:28:34.578Z,17.27
2018-09-03T04:29:34.526Z,17.23
2018-09-03T04:30:34.491Z,17.33
2018-09-03T04:31:34.463Z,17.27
2018-09-03T04:32:34.424Z,17.24
2018-09-03T04:33:34.391Z,17.26
2018-09-03T04:34:34.354Z,17.30
2018-09-03T04:35:34.321Z,17.27
2018-09-03T04:36:34.288Z,17.22
2018-09-03T04:37:34.256Z,17.29
2018-09-03T04:38:34.229Z,17.29
2018-09-03T04:39:34.182Z,17.15
2018-09-03T04:40:34.149Z,17.14
2018-09-03T04:41:34.115Z,17.16
2018-09-03T04:42:34.082Z,17.11
2018-09-03T04:43:34.042Z,17.12
2018-09-03T04:44:34.008Z,17.16
2018-09-03T04:45:33.977Z,17.11
2018-09-03T04:46:33.945Z,17.16
2018-09-03T04:47:33.904Z,17.12
2018-09-03T04:48:33.911Z,17.09
2018-09-03T04:49:33.834Z,17.11
2018-09-03T04:50:33.802Z,17.14
2018-09-03T04:51:33.768Z,17.08
2018-09-03T04:52:33.741Z,17.09
2018-09-03T04:53:33.706Z,17.06
2018-09-03T04:54:33.710Z,17.02
2018-09-03T04:55:33.629Z,16.99
2018-09-03T04:56:33.600Z,17.04
2018-09-03T04:57:33.570Z,16.94
2018-09-03T04:58:33.533Z,16.97
2018-09-03T04:59:33.498Z,16.90
2018-09-03T05:00:33.462Z,16.91
2018-09-03T05:01:33.426Z,16.91
2018-09-03T05:02:33.390Z,16.91
2018-09-03T05:03:33.358Z,16.91
2018-09-03T05:04:33.330Z,16.86
2018-09-03T05:05:33.358Z,16.86
2018-09-03T05:06:33.259Z,16.83
2018-09-03T05:07:33.222Z,16.81
2018-09-03T05:08:33.181Z,16.86
2018-09-03T05:09:33.150Z,16.91
2018-09-03T05:10:33.115Z,16.97
2018-09-03T05:11:33.084Z,16.94
2018-09-03T05:12:33.051Z,16.94
2018-09-03T05:13:33.017Z,17.01
2018-09-03T05:14:32.981Z,16.86
2018-09-03T05:15:32.943Z,16.86
2018-09-03T05:16:32.917Z,16.89
2018-09-03T05:17:32.881Z,16.86
2018-09-03T05:18:32.844Z,16.90
2018-09-03T05:19:32.805Z,16.94
2018-09-03T05:20:32.770Z,16.94
2018-09-03T05:21:32.739Z,17.04
2018-09-03T05:22:32.706Z,17.08
2018-09-03T05:23:32.677Z,16.99
2018-09-03T05:24:32.640Z,17.05
2018-09-03T05:25:32.609Z,16.93
2018-09-03T05:26:32.570Z,17.01
2018-09-03T05:27:32.531Z,16.94
2018-09-03T05:28:32.504Z,17.01
2018-09-03T05:29:32.461Z,17.05
2018-09-03T05:30:32.429Z,17.06
2018-09-03T05:31:32.397Z,16.97
2018-09-03T05:32:32.363Z,17.09
2018-09-03T05:33:32.342Z,17.09
2018-09-03T05:34:32.299Z,17.05
2018-09-03T05:35:32.260Z,17.05
2018-09-03T05:36:32.231Z,17.06
2018-09-03T05:37:32.193Z,17.06
2018-09-03T05:38:32.160Z,17.01
2018-09-03T05:39:32.131Z,16.81
2018-09-03T05:40:32.083Z,16.84
2018-09-03T05:41:32.056Z,16.81
2018-09-03T05:42:32.018Z,16.78
2018-09-03T05:43:32.068Z,16.75
2018-09-03T05:44:31.952Z,16.69
2018-09-03T05:45:31.921Z,16.75
2018-09-03T05:46:31.884Z,16.81
2018-09-03T05:47:31.846Z,16.79
2018-09-03T05:48:31.809Z,16.83
2018-09-03T05:49:31.786Z,16.87
2018-09-03T05:50:31.764Z,16.96
2018-09-03T05:51:31.709Z,17.09
2018-09-03T05:52:31.690Z,17.02
2018-09-03T05:53:31.641Z,17.04
2018-09-03T05:54:31.606Z,17.06
2018-09-03T05:55:31.576Z,17.01
2018-09-03T05:56:31.548Z,17.02
2018-09-03T05:57:31.509Z,17.02
2018-09-03T05:58:31.471Z,17.04
2018-09-03T05:59:31.435Z,17.14
2018-09-03T06:00:31.396Z,17.09
2018-09-03T06:01:31.365Z,17.14
2018-09-03T06:02:31.349Z,17.08
2018-09-03T06:03:31.304Z,17.08
2018-09-03T06:04:31.267Z,17.06
2018-09-03T06:05:31.227Z,17.06
2018-09-03T06:06:31.193Z,17.06
2018-09-03T06:07:31.163Z,17.05
2018-09-03T06:08:31.131Z,17.08
2018-09-03T06:09:31.094Z,17.06
2018-09-03T06:10:31.110Z,17.11
2018-09-03T06:11:31.020Z,17.08
2018-09-03T06:12:30.989Z,17.06
2018-09-03T06:13:30.950Z,17.02
2018-09-03T06:14:30.920Z,17.11
2018-09-03T06:15:30.885Z,17.11
2018-09-03T06:16:30.866Z,17.12
2018-09-03T06:17:30.823Z,17.19
2018-09-03T06:18:30.784Z,17.11
2018-09-03T06:19:30.746Z,17.14
2018-09-03T06:20:30.713Z,17.12
2018-09-03T06:21:30.687Z,17.06
2018-09-03T06:22:30.652Z,17.23
2018-09-03T06:23:30.608Z,17.20
2018-09-03T06:24:30.576Z,17.15
2018-09-03T06:25:30.545Z,17.20
2018-09-03T06:26:30.514Z,17.15
2018-09-03T06:27:30.476Z,17.19
2018-09-03T06:28:30.446Z,17.23
2018-09-03T06:29:30.412Z,17.29
2018-09-03T06:30:30.374Z,17.24
2018-09-03T06:31:30.335Z,17.27
2018-09-03T06:32:30.300Z,17.30
2018-09-03T06:33:30.270Z,17.38
2018-09-03T06:34:30.237Z,17.33
2018-09-03T06:35:30.203Z,17.34
2018-09-03T06:36:30.169Z,17.36
2018-09-03T06:37:30.131Z,17.38
2018-09-03T06:38:30.096Z,17.56
2018-09-03T06:39:30.064Z,17.56
2018-09-03T06:40:30.031Z,17.52
2018-09-03T06:41:29.999Z,17.59
2018-09-03T06:42:29.966Z,17.57
2018-09-03T06:43:29.927Z,17.54
2018-09-03T06:44:29.890Z,17.64
2018-09-03T06:45:29.862Z,17.71
2018-09-03T06:46:29.828Z,17.71
2018-09-03T06:47:29.794Z,17.65
2018-09-03T06:48:29.757Z,17.68
2018-09-03T06:49:29.723Z,17.76
2018-09-03T06:50:29.693Z,17.78
2018-09-03T06:51:29.652Z,17.74
2018-09-03T06:52:29.621Z,17.74
2018-09-03T06:53:29.639Z,17.79
2018-09-03T06:54:29.562Z,17.70
2018-09-03T06:55:29.515Z,17.65
2018-09-03T06:56:29.484Z,17.67
2018-09-03T06:57:29.452Z,17.68
2018-09-03T06:58:29.420Z,17.63
2018-09-03T06:59:29.469Z,17.72
2018-09-03T07:00:29.349Z,17.74
2018-09-03T07:01:29.316Z,17.82
2018-09-03T07:02:29.286Z,17.92
2018-09-03T07:03:29.249Z,18.01
2018-09-03T07:04:29.212Z,18.01
2018-09-03T07:05:29.182Z,18.08
2018-09-03T07:06:29.147Z,18.13
2018-09-03T07:07:29.122Z,18.10
2018-09-03T07:08:29.082Z,18.15
2018-09-03T07:09:29.043Z,18.18
2018-09-03T07:10:29.009Z,18.15
2018-09-03T07:11:28.981Z,18.08
2018-09-03T07:12:28.945Z,18.11
2018-09-03T07:13:28.912Z,18.16
2018-09-03T07:14:28.887Z,18.19
2018-09-03T07:15:28.846Z,18.26
2018-09-03T07:16:28.806Z,18.22
2018-09-03T07:17:28.777Z,18.33
2018-09-03T07:18:28.741Z,18.25
2018-09-03T07:19:28.710Z,18.25
2018-09-03T07:20:28.674Z,18.31
2018-09-03T07:21:28.641Z,18.20
2018-09-03T07:22:28.610Z,18.23
2018-09-03T07:23:28.570Z,18.35
2018-09-03T07:24:28.539Z,18.23
2018-09-03T07:25:28.509Z,18.31
2018-09-03T07:26:28.481Z,18.25
2018-09-03T07:27:28.440Z,18.40
2018-09-03T07:28:28.404Z,18.28
2018-09-03T07:29:28.369Z,18.22
2018-09-03T07:30:28.336Z,18.08
2018-09-03T07:31:28.307Z,17.95
2018-09-03T07:32:28.277Z,17.94
2018-09-03T07:33:28.245Z,17.97
2018-09-03T07:34:28.215Z,18.04
2018-09-03T07:35:28.195Z,18.00
2018-09-03T07:36:28.142Z,18.13
2018-09-03T07:37:28.105Z,18.08
2018-09-03T07:38:28.071Z,18.07
2018-09-03T07:39:28.039Z,18.18
2018-09-03T07:40:28.004Z,18.18
2018-09-03T07:41:27.977Z,18.10
2018-09-03T07:42:27.934Z,18.10
2018-09-03T07:43:27.908Z,18.22
2018-09-03T07:44:27.881Z,18.11
2018-09-03T07:45:27.837Z,18.07
2018-09-03T07:46:27.806Z,18.10
2018-09-03T07:47:27.775Z,18.15
2018-09-03T07:48:27.734Z,18.10
2018-09-03T07:49:27.704Z,18.13
2018-09-03T07:50:27.666Z,18.03
2018-09-03T07:51:27.643Z,18.07
2018-09-03T07:52:27.603Z,18.11
2018-09-03T07:53:27.578Z,18.13
2018-09-03T07:54:27.538Z,18.16
2018-09-03T07:55:27.497Z,18.05
2018-09-03T07:56:27.466Z,18.07
2018-09-03T07:57:27.436Z,18.22
2018-09-03T07:58:27.407Z,18.18
2018-09-03T07:59:27.366Z,18.18
2018-09-03T08:00:27.337Z,18.28
2018-09-03T08:01:27.699Z,18.26
2018-09-03T08:02:27.265Z,18.15
2018-09-03T08:03:27.237Z,18.22
2018-09-03T08:04:27.209Z,18.18
2018-09-03T08:05:27.170Z,18.05
2018-09-03T08:06:27.138Z,18.04
2018-09-03T08:07:27.179Z,18.03
2018-09-03T08:08:27.072Z,18.08
2018-09-03T08:09:27.040Z,18.11
2018-09-03T08:10:27.002Z,18.08
2018-09-03T08:11:26.972Z,18.13
2018-09-03T08:12:26.932Z,18.08
2018-09-03T08:13:26.897Z,18.13
2018-09-03T08:14:26.862Z,18.13
2018-09-03T08:15:26.834Z,18.11
2018-09-03T08:16:26.819Z,18.19
2018-09-03T08:17:26.767Z,18.34
2018-09-03T08:18:26.735Z,18.33
2018-09-03T08:19:26.695Z,18.38
2018-09-03T08:20:26.665Z,18.49
2018-09-03T08:21:26.630Z,18.45
2018-09-03T08:22:26.596Z,18.55
2018-09-03T08:23:26.565Z,18.58
2018-09-03T08:24:26.532Z,18.58
2018-09-03T08:25:26.499Z,18.68
2018-09-03T08:26:26.468Z,18.68
2018-09-03T08:27:26.431Z,18.71
2018-09-03T08:28:26.394Z,18.74
2018-09-03T08:29:26.364Z,18.73
2018-09-03T08:30:26.332Z,18.74
2018-09-03T08:31:26.292Z,18.78
2018-09-03T08:32:26.261Z,18.77
2018-09-03T08:33:26.226Z,18.78
2018-09-03T08:34:26.194Z,18.83
2018-09-03T08:35:26.219Z,18.59
2018-09-03T08:36:26.137Z,18.45
2018-09-03T08:37:26.098Z,18.37
2018-09-03T08:38:26.067Z,18.35
2018-09-03T08:39:26.031Z,18.43
2018-09-03T08:40:25.995Z,18.44
2018-09-03T08:41:25.963Z,18.45
2018-09-03T08:42:25.930Z,18.45
2018-09-03T08:43:25.902Z,18.45
2018-09-03T08:44:25.866Z,18.49
2018-09-03T08:45:25.829Z,18.47
2018-09-03T08:46:25.802Z,18.47
2018-09-03T08:47:25.770Z,18.49
2018-09-03T08:48:25.737Z,18.53
2018-09-03T08:49:25.697Z,18.56
2018-09-03T08:50:25.721Z,18.56
2018-09-03T08:51:25.641Z,18.50
2018-09-03T08:52:25.596Z,18.55
2018-09-03T08:53:25.562Z,18.59
2018-09-03T08:54:25.529Z,18.58
2018-09-03T08:55:25.500Z,18.62
2018-09-03T08:56:25.467Z,18.63
2018-09-03T08:57:25.433Z,18.60
2018-09-03T08:58:25.405Z,18.55
2018-09-03T08:59:25.362Z,18.66
2018-09-03T09:00:25.329Z,18.66
2018-09-03T09:01:25.300Z,18.77
2018-09-03T09:02:25.268Z,18.59
2018-09-03T09:03:25.233Z,18.77
2018-09-03T09:04:25.205Z,18.75
2018-09-03T09:05:25.163Z,18.74
2018-09-03T09:06:25.129Z,18.77
2018-09-03T09:07:25.103Z,18.86
2018-09-03T09:08:25.072Z,18.89
2018-09-03T09:09:25.036Z,18.81
2018-09-03T09:10:25.001Z,18.81
2018-09-03T09:11:24.964Z,18.88
2018-09-03T09:12:24.931Z,18.89
2018-09-03T09:13:24.898Z,19.02
2018-09-03T09:14:24.867Z,18.86
2018-09-03T09:15:24.837Z,18.89
2018-09-03T09:16:24.801Z,18.86
2018-09-03T09:17:24.765Z,18.86
2018-09-03T09:18:24.732Z,18.80
2018-09-03T09:19:24.700Z,18.83
2018-09-03T09:20:24.669Z,18.84
2018-09-03T09:21:24.659Z,18.81
2018-09-03T09:22:24.605Z,18.84
2018-09-03T09:23:24.566Z,18.80
2018-09-03T09:24:24.581Z,18.80
2018-09-03T09:25:24.502Z,18.83
2018-09-03T09:26:24.471Z,18.81
2018-09-03T09:27:24.437Z,18.88
2018-09-03T09:28:24.407Z,18.88
2018-09-03T09:29:24.371Z,18.95
2018-09-03T09:30:24.341Z,18.89
2018-09-03T09:31:24.326Z,18.95
2018-09-03T09:32:24.270Z,18.93
2018-09-03T09:33:24.245Z,18.86
2018-09-03T09:34:24.213Z,18.93
2018-09-03T09:35:24.171Z,18.92
2018-09-03T09:36:24.139Z,18.92
2018-09-03T09:37:24.105Z,18.95
2018-09-03T09:38:24.073Z,18.96
2018-09-03T09:39:24.044Z,18.92
2018-09-03T09:40:24.009Z,19.00
2018-09-03T09:41:23.979Z,19.07
2018-09-03T09:42:23.946Z,19.11
2018-09-03T09:43:23.921Z,19.09
2018-09-03T09:44:23.878Z,19.07
2018-09-03T09:45:23.847Z,18.99
2018-09-03T09:46:23.816Z,19.02
2018-09-03T09:47:23.777Z,19.02
2018-09-03T09:48:23.749Z,18.93
2018-09-03T09:49:23.744Z,18.95
2018-09-03T09:50:23.672Z,19.02
2018-09-03T09:51:23.649Z,18.96
2018-09-03T09:52:23.611Z,19.00
2018-09-03T09:53:23.575Z,19.07
2018-09-03T09:54:23.545Z,19.04
2018-09-03T09:55:23.506Z,19.09
2018-09-03T09:56:23.474Z,19.14
2018-09-03T09:57:23.445Z,19.18
2018-09-03T09:58:23.406Z,19.21
2018-09-03T09:59:23.386Z,19.36
2018-09-03T10:00:23.344Z,19.24
2018-09-03T10:01:23.313Z,19.31
2018-09-03T10:02:23.282Z,19.34
2018-09-03T10:03:23.240Z,19.41
2018-09-03T10:04:23.258Z,19.62
2018-09-03T10:05:23.183Z,19.51
2018-09-03T10:06:23.149Z,19.63
2018-09-03T10:21:14.451Z,19.95
2018-09-03T10:22:14.383Z,19.95
2018-09-03T10:23:14.349Z,19.99
2018-09-03T10:24:14.304Z,19.99
2018-09-03T10:25:14.272Z,20.00
2018-09-03T10:26:14.239Z,19.94
2018-09-03T10:27:14.196Z,20.06
2018-09-03T10:28:14.170Z,19.95
2018-09-03T10:29:14.132Z,20.07
2018-09-03T10:30:14.097Z,19.96
2018-09-03T10:31:14.070Z,19.95
2018-09-03T10:32:14.025Z,19.81
2018-09-03T10:33:13.991Z,19.94
2018-09-03T10:34:13.956Z,19.88
2018-09-03T10:35:13.923Z,19.86
2018-09-03T10:36:13.896Z,19.92
2018-09-03T10:37:13.866Z,19.88
2018-09-03T10:38:13.833Z,19.91
2018-09-03T10:39:13.790Z,19.94
2018-09-03T10:40:13.765Z,19.94
2018-09-03T10:41:13.727Z,19.99
2018-09-03T10:42:13.693Z,20.06
2018-09-03T10:43:13.665Z,20.13
2018-09-03T10:44:13.624Z,20.07
2018-09-03T10:45:13.598Z,20.02
2018-09-03T10:46:13.560Z,20.02
2018-09-03T10:47:13.631Z,20.03
2018-09-03T10:48:13.501Z,20.06
2018-09-03T10:49:13.471Z,20.04
2018-09-03T10:50:13.431Z,20.10
2018-09-03T10:51:13.399Z,20.07
2018-09-03T10:52:13.363Z,20.10
2018-09-03T10:53:13.340Z,20.26
2018-09-03T10:54:13.304Z,20.31
2018-09-03T10:55:13.269Z,20.36
2018-09-03T10:56:13.244Z,20.29
2018-09-03T10:57:13.199Z,20.28
2018-09-03T10:58:13.170Z,20.28
2018-09-03T10:59:13.134Z,20.22
2018-09-03T11:00:13.106Z,20.18
2018-09-03T11:01:13.071Z,20.21
2018-09-03T11:02:13.040Z,20.24
2018-09-03T11:03:13.007Z,20.21
2018-09-03T11:04:12.972Z,20.16
2018-09-03T11:05:12.943Z,20.28
2018-09-03T11:06:12.908Z,20.28
2018-09-03T11:07:12.877Z,20.34
2018-09-03T11:08:12.851Z,20.32
2018-09-03T11:09:12.811Z,20.36
2018-09-03T11:10:12.777Z,20.41
2018-09-03T11:11:12.745Z,20.51
2018-09-03T11:12:12.717Z,20.58
2018-09-03T11:13:12.768Z,20.59
2018-09-03T11:14:12.667Z,20.51
2018-09-03T11:15:12.625Z,20.55
2018-09-03T11:16:12.584Z,20.47
2018-09-03T11:17:12.554Z,20.40
2018-09-03T11:18:12.522Z,20.52
2018-09-03T11:19:12.494Z,20.47
2018-09-03T11:20:12.463Z,20.51
2018-09-03T11:21:12.480Z,20.52
2018-09-03T11:22:12.397Z,20.51
2018-09-03T11:23:12.358Z,20.48
2018-09-03T11:24:12.334Z,20.41
2018-09-03T11:25:12.298Z,20.41
2018-09-03T11:26:12.264Z,20.44
2018-09-03T11:27:12.237Z,20.48
2018-09-03T11:28:12.205Z,20.50
2018-09-03T11:29:12.179Z,20.51
2018-09-03T11:30:12.137Z,20.51
2018-09-03T11:31:12.112Z,20.56
2018-09-03T11:32:12.075Z,20.67
2018-09-03T11:33:12.047Z,20.69
2018-09-03T11:34:12.017Z,20.75
2018-09-03T11:35:12.049Z,20.70
2018-09-03T11:36:11.959Z,20.69
2018-09-03T11:37:11.914Z,20.56
2018-09-03T11:38:11.881Z,20.56
2018-09-03T11:39:11.857Z,20.60
2018-09-03T11:40:11.814Z,20.69
2018-09-03T11:41:11.791Z,20.60
2018-09-03T11:42:11.755Z,20.72
2018-09-03T11:43:11.724Z,20.75
2018-09-03T11:44:11.686Z,20.74
2018-09-03T11:45:11.659Z,20.75
2018-09-03T11:46:11.623Z,20.87
2018-09-03T11:47:11.622Z,20.87
2018-09-03T11:48:11.565Z,20.84
2018-09-03T11:49:11.539Z,20.85
2018-09-03T11:50:11.497Z,20.95
2018-09-03T11:51:11.468Z,21.03
2018-09-03T11:52:11.456Z,20.97
2018-09-03T11:53:11.403Z,21.02
2018-09-03T11:54:11.371Z,21.09
2018-09-03T11:55:11.342Z,21.14
2018-09-03T11:56:11.317Z,21.18
2018-09-03T11:57:11.277Z,21.11
2018-09-03T11:58:11.244Z,21.15
2018-09-03T11:59:11.210Z,21.00
2018-09-03T12:00:11.191Z,21.12
2018-09-03T12:01:11.162Z,21.14
2018-09-03T12:02:11.128Z,21.09
2018-09-03T12:03:11.094Z,21.11
2018-09-03T12:04:11.056Z,21.15
2018-09-03T12:05:11.024Z,21.12
2018-09-03T12:06:10.991Z,21.12
2018-09-03T12:07:10.962Z,21.20
2018-09-03T12:08:10.931Z,21.24
2018-09-03T12:09:10.896Z,21.22
2018-09-03T12:10:10.868Z,21.29
2018-09-03T12:11:10.836Z,21.33
2018-09-03T12:12:10.799Z,21.21
2018-09-03T12:13:10.769Z,21.20
2018-09-03T12:14:10.738Z,21.14
2018-09-03T12:15:10.711Z,21.05
2018-09-03T12:16:10.676Z,21.14
2018-09-03T12:17:10.644Z,21.09
2018-09-03T12:18:10.610Z,21.12
2018-09-03T12:19:10.578Z,21.17
2018-09-03T12:20:10.552Z,21.25
2018-09-03T12:21:10.547Z,21.21
2018-09-03T12:22:10.487Z,21.18
2018-09-03T12:23:10.464Z,21.15
2018-09-03T12:24:10.425Z,21.17
2018-09-03T12:25:10.396Z,21.22
2018-09-03T12:26:10.361Z,21.22
2018-09-03T12:27:10.326Z,21.27
2018-09-03T12:28:10.300Z,21.24
2018-09-03T12:29:10.281Z,21.25
2018-09-03T12:30:10.235Z,21.20
2018-09-03T12:31:10.251Z,21.29
2018-09-03T12:32:10.176Z,21.35
2018-09-03T12:33:10.141Z,21.25
2018-09-03T12:34:10.110Z,21.32
2018-09-03T12:35:10.083Z,21.42
2018-09-03T12:36:10.048Z,21.30
2018-09-03T12:37:10.014Z,21.33
2018-09-03T12:38:09.987Z,21.27
2018-09-03T12:39:09.947Z,21.24
2018-09-03T12:40:09.923Z,21.39
2018-09-03T12:41:09.922Z,21.33
2018-09-03T12:42:09.858Z,21.42
2018-09-03T12:43:09.833Z,21.42
2018-09-03T12:44:09.797Z,21.37
2018-09-03T12:45:09.763Z,21.43
2018-09-03T12:46:09.738Z,21.42
2018-09-03T12:47:09.704Z,21.46
2018-09-03T12:48:09.671Z,21.51
2018-09-03T12:49:09.636Z,21.60
2018-09-03T12:50:09.635Z,21.61
2018-09-03T12:51:09.581Z,21.66
2018-09-03T12:52:09.546Z,21.72
2018-09-03T12:53:09.513Z,21.66
2018-09-03T12:54:09.483Z,21.79
2018-09-03T12:55:09.452Z,21.88
2018-09-03T12:56:09.416Z,21.85
2018-09-03T12:57:09.387Z,21.79
2018-09-03T12:58:09.356Z,21.83
2018-09-03T12:59:09.323Z,21.77
2018-09-03T13:00:09.300Z,21.69
2018-09-03T13:01:09.269Z,21.73
2018-09-03T13:02:09.233Z,21.69
2018-09-03T13:03:09.223Z,21.64
2018-09-03T13:04:09.174Z,21.58
2018-09-03T13:05:09.139Z,21.64
2018-09-03T13:06:09.114Z,21.66
2018-09-03T13:07:09.078Z,21.72
2018-09-03T13:08:09.042Z,21.64
2018-09-03T13:09:09.013Z,21.66
2018-09-03T13:10:08.982Z,21.57
2018-09-03T13:11:08.953Z,21.58
2018-09-03T13:12:08.925Z,21.60
2018-09-03T13:13:08.891Z,21.73
2018-09-03T13:14:08.858Z,21.67
2018-09-03T13:15:08.836Z,21.73
2018-09-03T13:16:08.798Z,21.72
2018-09-03T13:17:08.770Z,21.55
2018-09-03T13:18:08.736Z,21.57
2018-09-03T13:19:08.712Z,21.57